Terminal Aerodrome Forecast
Issued by NWS Spokane, WA

Home | Current Version | Previous Version | Text Only | Print | Product List | Glossary On
Versions: 1 2 3 4 5 6 7 8 9 10 11 12 13 14 15 16 17 18 19 20 21 22 23 24 25 26 27 28 29 30
000
FTUS46 KOTX 222354 AAA
TAFLWS
TAF AMD
KLWS 222354Z 2300/2324 29010KT P6SM -TSRAGS SCT060CB BKN090 OVC120
     FM230100 33008KT P6SM VCTS SCT070CB BKN150
     FM230400 14004KT P6SM -SHRA VCTS BKN080CB OVC120
     FM231200 06004KT P6SM VCSH SCT080 BKN100
     FM232000 32012KT P6SM -TSRA SCT070CB BKN100=

USA.gov is the U.S. government's official web portal to all federal, state and local government web resources and services.